Time;durP1;ratioP1;P1;durP2;ratioP2;P2;SDS_P1;SDS_P2;PMS_P1;PMS_P2;Temp;Humidity;BMP_temperature;BMP_pressure;BME280_temperature;BME280_humidity;BME280_pressure;Samples;Min_cycle;Max_cycle;Signal;HPM_P1;HPM_P2
2021/03/12 00:00:33;;;;;;;30.13;17.73;;;;;;;;;;777760;179;1021639;-65
2021/03/12 00:02:59;;;;;;;33.10;18.47;;;;;;;;;;780544;179;919255;-64
2021/03/12 00:05:25;;;;;;;30.83;19.10;;;;;;;;;;779048;179;918563;-64
2021/03/12 00:07:51;;;;;;;31.80;15.87;;;;;;;;;;774816;179;919030;-64
2021/03/12 00:10:18;;;;;;;23.60;14.27;;;;;;;;;;776264;179;1026691;-65
2021/03/12 00:12:43;;;;;;;30.17;16.20;;;;;;;;;;764332;179;2537581;-64
2021/03/12 00:15:09;;;;;;;27.53;16.87;;;;;;;;;;777259;179;918774;-63
2021/03/12 00:17:35;;;;;;;31.90;16.43;;;;;;;;;;774107;179;918961;-64
2021/03/12 00:20:01;;;;;;;21.80;11.50;;;;;;;;;;784678;179;919384;-64
2021/03/12 00:22:27;;;;;;;20.33;9.40;;;;;;;;;;775908;179;919236;-64
2021/03/12 00:24:53;;;;;;;24.47;14.30;;;;;;;;;;779039;179;918260;-64
2021/03/12 00:27:19;;;;;;;18.17;11.70;;;;;;;;;;779050;179;942146;-64
2021/03/12 00:29:44;;;;;;;22.30;13.18;;;;;;;;;;777509;179;919433;-64
2021/03/12 00:32:10;;;;;;;24.53;14.10;;;;;;;;;;762803;179;3004927;-64
2021/03/12 00:34:36;;;;;;;26.30;13.60;;;;;;;;;;775185;182;920161;-63
2021/03/12 00:37:02;;;;;;;27.93;16.43;;;;;;;;;;778219;179;920325;-64
2021/03/12 00:39:28;;;;;;;24.70;14.63;;;;;;;;;;774505;178;921699;-64
2021/03/12 00:41:55;;;;;;;32.70;16.27;;;;;;;;;;781455;178;920601;-63
2021/03/12 00:44:20;;;;;;;32.97;17.83;;;;;;;;;;779770;175;919728;-64
2021/03/12 00:46:45;;;;;;;28.70;13.37;;;;;;;;;;778747;179;919537;-65
2021/03/12 00:49:11;;;;;;;31.80;14.65;;;;;;;;;;775099;178;921600;-64
2021/03/12 00:51:37;;;;;;;28.80;16.43;;;;;;;;;;782546;178;919254;-64
2021/03/12 00:54:03;;;;;;;29.00;15.73;;;;;;;;;;776731;178;914185;-65
2021/03/12 00:56:29;;;;;;;29.10;15.63;;;;;;;;;;773872;179;919384;-64
2021/03/12 00:58:55;;;;;;;28.10;16.97;;;;;;;;;;780672;179;882141;-64
2021/03/12 01:01:21;;;;;;;27.77;16.40;;;;;;;;;;778541;179;915730;-64
2021/03/12 01:03:47;;;;;;;31.23;16.77;;;;;;;;;;777261;179;919833;-63
2021/03/12 01:06:13;;;;;;;39.93;15.50;;;;;;;;;;782753;179;916846;-64
2021/03/12 01:08:38;;;;;;;34.40;16.87;;;;;;;;;;775914;179;917607;-63
2021/03/12 01:11:04;;;;;;;34.07;18.63;;;;;;;;;;778837;179;919289;-64
2021/03/12 01:13:34;;;;;;;34.90;18.27;;;;;;;;;;774099;179;1495561;-65
2021/03/12 01:16:00;;;;;;;32.33;14.23;;;;;;;;;;779200;175;918868;-63
2021/03/12 01:18:26;;;;;;;32.37;17.27;;;;;;;;;;774939;179;919524;-63
2021/03/12 01:20:52;;;;;;;35.50;16.70;;;;;;;;;;771040;179;919099;-64
2021/03/12 01:23:18;;;;;;;27.60;15.30;;;;;;;;;;782771;179;918897;-63
2021/03/12 01:25:44;;;;;;;31.93;15.93;;;;;;;;;;775728;179;919589;-63
2021/03/12 01:28:09;;;;;;;33.92;17.10;;;;;;;;;;778135;179;920140;-63
2021/03/12 01:30:38;;;;;;;38.13;17.90;;;;;;;;;;779577;179;918924;-63
2021/03/12 01:33:04;;;;;;;35.50;16.33;;;;;;;;;;775536;179;918616;-64
2021/03/12 01:35:30;;;;;;;34.60;17.90;;;;;;;;;;775788;179;918998;-64
2021/03/12 01:37:56;;;;;;;40.60;19.70;;;;;;;;;;775737;179;920009;-64
2021/03/12 01:40:22;;;;;;;27.27;17.37;;;;;;;;;;781296;179;785961;-64
2021/03/12 01:42:47;;;;;;;36.97;18.33;;;;;;;;;;778671;179;919268;-64
2021/03/12 01:45:14;;;;;;;29.17;15.95;;;;;;;;;;774329;179;1025073;-64
2021/03/12 01:47:40;;;;;;;41.85;22.20;;;;;;;;;;781806;179;919537;-63
2021/03/12 01:50:06;;;;;;;38.37;20.90;;;;;;;;;;773044;179;919465;-62
2021/03/12 01:52:32;;;;;;;36.90;20.00;;;;;;;;;;780371;176;919363;-67
2021/03/12 01:54:58;;;;;;;32.57;20.20;;;;;;;;;;784051;178;919219;-63
2021/03/12 01:57:24;;;;;;;33.95;14.93;;;;;;;;;;778570;178;920048;-64
2021/03/12 01:59:49;;;;;;;38.30;18.60;;;;;;;;;;779929;178;919127;-63
2021/03/12 02:02:15;;;;;;;30.57;17.00;;;;;;;;;;774843;178;919023;-64
2021/03/12 02:04:41;;;;;;;18.40;12.63;;;;;;;;;;781737;178;924056;-63
2021/03/12 02:07:07;;;;;;;34.63;19.40;;;;;;;;;;776242;178;920770;-64
2021/03/12 02:09:33;;;;;;;26.50;15.80;;;;;;;;;;777999;178;919142;-63
2021/03/12 02:12:02;;;;;;;38.43;21.60;;;;;;;;;;780590;179;914217;-64
2021/03/12 02:14:28;;;;;;;33.50;20.20;;;;;;;;;;778048;179;915359;-64
2021/03/12 02:16:54;;;;;;;35.03;19.20;;;;;;;;;;774153;179;912856;-63
2021/03/12 02:19:35;;;;;;;31.40;17.10;;;;;;;;;;782526;179;913489;-66
2021/03/12 02:22:01;;;;;;;36.30;18.10;;;;;;;;;;764291;179;1491240;-64
2021/03/12 02:24:31;;;;;;;33.37;19.20;;;;;;;;;;774245;179;1448414;-64
2021/03/12 02:26:57;;;;;;;30.83;18.63;;;;;;;;;;776467;179;910542;-64
2021/03/12 02:29:23;;;;;;;35.70;16.83;;;;;;;;;;776432;179;922106;-65
2021/03/12 02:31:49;;;;;;;30.03;17.80;;;;;;;;;;780169;179;914506;-65
2021/03/12 02:34:15;;;;;;;36.80;18.27;;;;;;;;;;778470;179;922151;-65
2021/03/12 02:36:45;;;;;;;35.63;20.73;;;;;;;;;;777018;179;908875;-65
2021/03/12 02:39:11;;;;;;;35.03;18.30;;;;;;;;;;779113;179;911462;-65
2021/03/12 02:41:37;;;;;;;31.83;19.67;;;;;;;;;;778186;179;919755;-65
2021/03/12 02:44:03;;;;;;;29.50;18.00;;;;;;;;;;771912;179;1935471;-64
2021/03/12 02:46:29;;;;;;;29.57;17.27;;;;;;;;;;776782;179;919725;-64
2021/03/12 02:48:54;;;;;;;29.10;17.67;;;;;;;;;;779854;179;933066;-64
2021/03/12 02:51:20;;;;;;;35.27;18.70;;;;;;;;;;778975;179;947718;-64
2021/03/12 02:53:46;;;;;;;41.00;19.33;;;;;;;;;;775172;179;919338;-64
2021/03/12 02:56:12;;;;;;;32.77;16.43;;;;;;;;;;782070;179;920220;-63
2021/03/12 02:58:38;;;;;;;31.90;14.50;;;;;;;;;;774174;179;920754;-63
2021/03/12 03:01:04;;;;;;;34.20;16.23;;;;;;;;;;770116;179;1767837;-63
2021/03/12 03:03:29;;;;;;;24.80;15.53;;;;;;;;;;781220;178;919086;-62
2021/03/12 03:05:55;;;;;;;26.93;15.07;;;;;;;;;;780533;178;919845;-63
2021/03/12 03:08:21;;;;;;;32.43;18.00;;;;;;;;;;776201;178;919749;-64
2021/03/12 03:10:48;;;;;;;28.40;15.82;;;;;;;;;;784655;178;918999;-62
2021/03/12 03:13:14;;;;;;;31.70;17.87;;;;;;;;;;769231;182;920138;-64
2021/03/12 03:15:40;;;;;;;35.30;17.93;;;;;;;;;;778538;179;920144;-64
2021/03/12 03:18:06;;;;;;;28.63;17.23;;;;;;;;;;777997;178;921960;-63
2021/03/12 03:20:31;;;;;;;32.20;17.05;;;;;;;;;;780020;178;919355;-63
2021/03/12 03:22:57;;;;;;;39.90;20.00;;;;;;;;;;777948;179;919378;-63
2021/03/12 03:25:23;;;;;;;35.20;18.27;;;;;;;;;;775209;179;920424;-64
2021/03/12 03:27:49;;;;;;;32.47;17.10;;;;;;;;;;783225;179;918551;-64
2021/03/12 03:30:15;;;;;;;30.87;17.37;;;;;;;;;;774773;179;1024401;-64
2021/03/12 03:32:41;;;;;;;32.97;18.93;;;;;;;;;;778840;179;932642;-64
2021/03/12 03:35:07;;;;;;;43.70;19.30;;;;;;;;;;782683;179;918954;-64
2021/03/12 03:37:33;;;;;;;34.20;16.57;;;;;;;;;;775636;179;1720520;-63
2021/03/12 03:39:59;;;;;;;29.90;17.60;;;;;;;;;;776344;179;919262;-63
2021/03/12 03:42:24;;;;;;;33.23;19.70;;;;;;;;;;779802;179;919148;-64
2021/03/12 03:44:50;;;;;;;36.43;20.47;;;;;;;;;;777695;175;941626;-64
2021/03/12 03:47:16;;;;;;;33.20;20.03;;;;;;;;;;778272;179;918677;-64
2021/03/12 03:49:43;;;;;;;35.38;18.23;;;;;;;;;;773596;179;1010518;-68
2021/03/12 03:52:08;;;;;;;32.20;18.73;;;;;;;;;;783431;179;919011;-64
2021/03/12 03:54:34;;;;;;;33.30;20.05;;;;;;;;;;775577;179;1056364;-63
2021/03/12 03:57:00;;;;;;;33.97;19.20;;;;;;;;;;774780;179;911910;-64
2021/03/12 03:59:26;;;;;;;41.80;19.83;;;;;;;;;;781082;179;919716;-64
2021/03/12 04:01:51;;;;;;;31.70;18.77;;;;;;;;;;773674;179;921655;-64
2021/03/12 04:04:17;;;;;;;31.50;19.90;;;;;;;;;;777535;179;921080;-64
2021/03/12 04:06:43;;;;;;;34.20;19.57;;;;;;;;;;778702;179;919574;-65
2021/03/12 04:09:09;;;;;;;33.93;17.80;;;;;;;;;;778179;179;918470;-64
2021/03/12 04:11:35;;;;;;;33.00;18.57;;;;;;;;;;779126;179;920588;-66
2021/03/12 04:14:01;;;;;;;30.30;18.83;;;;;;;;;;774402;178;1014626;-64
2021/03/12 04:16:27;;;;;;;27.53;17.53;;;;;;;;;;782280;175;919396;-63
2021/03/12 04:18:52;;;;;;;26.13;16.93;;;;;;;;;;780091;178;919160;-64
2021/03/12 04:21:18;;;;;;;36.97;17.27;;;;;;;;;;776345;178;918410;-64
2021/03/12 04:23:44;;;;;;;34.23;18.30;;;;;;;;;;783936;178;919438;-64
2021/03/12 04:26:10;;;;;;;31.07;15.60;;;;;;;;;;775501;178;920283;-64
2021/03/12 04:28:36;;;;;;;24.73;15.75;;;;;;;;;;777814;178;919896;-64
2021/03/12 04:31:02;;;;;;;26.00;14.73;;;;;;;;;;784004;178;919577;-63
2021/03/12 04:33:27;;;;;;;26.12;14.82;;;;;;;;;;769744;178;1043151;-63
2021/03/12 04:35:53;;;;;;;29.60;17.50;;;;;;;;;;777609;179;920816;-63
2021/03/12 04:38:19;;;;;;;25.87;15.23;;;;;;;;;;779345;179;919480;-63
2021/03/12 04:40:45;;;;;;;24.33;13.88;;;;;;;;;;778763;179;920954;-64
2021/03/12 04:43:11;;;;;;;25.00;14.77;;;;;;;;;;776583;179;920024;-63
2021/03/12 04:45:38;;;;;;;23.43;12.57;;;;;;;;;;777384;179;915945;-63
2021/03/12 04:48:04;;;;;;;18.90;13.23;;;;;;;;;;774802;179;915433;-64
2021/03/12 04:50:30;;;;;;;27.13;15.33;;;;;;;;;;780352;179;915392;-64
2021/03/12 04:52:56;;;;;;;28.63;12.70;;;;;;;;;;775173;179;919308;-69
2021/03/12 04:55:22;;;;;;;15.90;10.60;;;;;;;;;;782079;179;1021744;-63
2021/03/12 04:57:47;;;;;;;29.43;12.90;;;;;;;;;;775891;179;919896;-63
2021/03/12 05:00:14;;;;;;;23.70;13.53;;;;;;;;;;777044;179;928427;-64
2021/03/12 05:02:40;;;;;;;18.02;11.95;;;;;;;;;;779790;179;918623;-65
2021/03/12 05:05:06;;;;;;;20.40;12.07;;;;;;;;;;775921;179;1022438;-63
2021/03/12 05:07:35;;;;;;;15.80;10.67;;;;;;;;;;775886;179;919088;-65
2021/03/12 05:10:03;;;;;;;16.27;9.87;;;;;;;;;;776058;179;919153;-64
2021/03/12 05:12:27;;;;;;;18.53;10.07;;;;;;;;;;782145;179;918142;-63
2021/03/12 05:14:53;;;;;;;39.97;11.80;;;;;;;;;;774893;179;920044;-63
2021/03/12 05:17:21;;;;;;;13.43;7.80;;;;;;;;;;777652;179;924396;-63
2021/03/12 05:19:45;;;;;;;18.40;9.93;;;;;;;;;;779550;179;907339;-63
2021/03/12 05:22:11;;;;;;;13.93;6.93;;;;;;;;;;777945;179;917814;-63
2021/03/12 05:24:37;;;;;;;16.50;6.80;;;;;;;;;;774967;179;919714;-63
2021/03/12 05:27:03;;;;;;;12.33;7.60;;;;;;;;;;784682;178;919105;-63
2021/03/12 05:29:29;;;;;;;15.00;7.93;;;;;;;;;;775398;178;931811;-63
2021/03/12 05:31:54;;;;;;;18.77;8.98;;;;;;;;;;778221;178;896766;-63
2021/03/12 05:34:20;;;;;;;22.40;9.30;;;;;;;;;;776441;178;911270;-65
2021/03/12 05:36:46;;;;;;;17.10;8.30;;;;;;;;;;777380;175;919245;-62
2021/03/12 05:39:12;;;;;;;14.77;7.77;;;;;;;;;;777627;178;918326;-62
2021/03/12 05:41:38;;;;;;;13.93;8.70;;;;;;;;;;778520;178;919703;-62
2021/03/12 05:44:06;;;;;;;11.70;6.23;;;;;;;;;;784128;178;632793;-64
2021/03/12 05:46:32;;;;;;;14.00;7.27;;;;;;;;;;780526;179;921879;-63
2021/03/12 05:48:57;;;;;;;11.70;7.13;;;;;;;;;;782906;179;628103;-64
2021/03/12 05:51:23;;;;;;;12.33;7.13;;;;;;;;;;782622;179;624158;-63
2021/03/12 05:53:49;;;;;;;14.07;7.90;;;;;;;;;;781575;179;919586;-65
2021/03/12 05:56:15;;;;;;;14.20;6.77;;;;;;;;;;777730;179;919914;-63
2021/03/12 05:58:41;;;;;;;11.80;5.80;;;;;;;;;;780657;179;632236;-63
2021/03/12 06:01:07;;;;;;;15.10;8.10;;;;;;;;;;779882;176;917165;-63
2021/03/12 06:03:32;;;;;;;11.97;7.23;;;;;;;;;;778681;179;920331;-63
2021/03/12 06:05:58;;;;;;;9.80;6.20;;;;;;;;;;773786;179;919481;-64
2021/03/12 06:08:24;;;;;;;11.03;6.57;;;;;;;;;;782559;179;884468;-63
2021/03/12 06:10:50;;;;;;;11.13;7.13;;;;;;;;;;773992;179;922634;-63
2021/03/12 06:13:16;;;;;;;19.43;7.33;;;;;;;;;;776892;179;920578;-63
2021/03/12 06:15:45;;;;;;;11.47;6.67;;;;;;;;;;779956;179;919474;-64
2021/03/12 06:18:14;;;;;;;13.90;7.03;;;;;;;;;;779564;179;918312;-63
2021/03/12 06:20:40;;;;;;;8.77;5.62;;;;;;;;;;767655;179;2590034;-63
2021/03/12 06:23:06;;;;;;;8.40;5.77;;;;;;;;;;777419;179;920628;-62
2021/03/12 06:25:36;;;;;;;14.63;7.20;;;;;;;;;;782715;179;916586;-64
2021/03/12 06:28:08;;;;;;;7.23;5.63;;;;;;;;;;775462;179;920328;-63
2021/03/12 06:30:34;;;;;;;8.40;4.70;;;;;;;;;;776877;179;919297;-65
2021/03/12 06:33:00;;;;;;;9.40;5.50;;;;;;;;;;774636;179;918274;-63
2021/03/12 06:35:25;;;;;;;9.00;5.87;;;;;;;;;;776024;180;908452;-63
2021/03/12 06:37:51;;;;;;;9.30;5.73;;;;;;;;;;777304;178;914630;-63
2021/03/12 06:40:18;;;;;;;7.93;5.00;;;;;;;;;;779178;178;918363;-63
2021/03/12 06:42:51;;;;;;;9.93;6.00;;;;;;;;;;782408;178;921734;-62
2021/03/12 06:45:16;;;;;;;7.80;4.77;;;;;;;;;;781015;178;914994;-64
2021/03/12 06:47:42;;;;;;;5.30;3.60;;;;;;;;;;777290;178;915587;-62
2021/03/12 06:50:09;;;;;;;6.37;4.73;;;;;;;;;;778206;178;1045770;-63
2021/03/12 06:52:35;;;;;;;3.60;2.67;;;;;;;;;;775342;179;895019;-63
2021/03/12 06:55:00;;;;;;;5.20;3.00;;;;;;;;;;778437;179;919946;-64
2021/03/12 06:57:26;;;;;;;6.20;2.67;;;;;;;;;;774315;179;919542;-63
2021/03/12 06:59:57;;;;;;;4.60;3.53;;;;;;;;;;783290;179;917549;-62
2021/03/12 07:02:29;;;;;;;3.50;1.70;;;;;;;;;;777871;179;910901;-63
2021/03/12 07:04:55;;;;;;;4.73;2.53;;;;;;;;;;782114;179;918735;-63
2021/03/12 07:07:26;;;;;;;5.13;2.00;;;;;;;;;;773902;179;989070;-62
2021/03/12 07:09:56;;;;;;;8.60;3.33;;;;;;;;;;779504;179;919325;-63
2021/03/12 07:12:26;;;;;;;5.30;2.13;;;;;;;;;;773684;179;919215;-62
2021/03/12 07:14:52;;;;;;;2.97;1.67;;;;;;;;;;774591;179;916227;-62
2021/03/12 07:17:18;;;;;;;1.77;1.00;;;;;;;;;;776066;179;919451;-61
2021/03/12 07:19:44;;;;;;;2.70;1.30;;;;;;;;;;780818;179;918011;-61
2021/03/12 07:22:09;;;;;;;2.20;1.50;;;;;;;;;;774024;179;928896;-62
2021/03/12 07:24:35;;;;;;;3.10;1.30;;;;;;;;;;773915;179;919870;-61
2021/03/12 07:27:01;;;;;;;2.63;1.60;;;;;;;;;;783219;179;927884;-62
2021/03/12 07:29:28;;;;;;;5.13;1.57;;;;;;;;;;771403;179;1507590;-63
2021/03/12 07:31:54;;;;;;;5.90;2.20;;;;;;;;;;778795;179;918416;-62
2021/03/12 07:34:21;;;;;;;2.13;1.20;;;;;;;;;;779179;179;806269;-63
2021/03/12 07:36:47;;;;;;;3.13;1.53;;;;;;;;;;777862;179;926039;-62
2021/03/12 07:39:16;;;;;;;2.20;1.17;;;;;;;;;;773744;179;928740;-62
2021/03/12 07:41:41;;;;;;;2.20;1.23;;;;;;;;;;777898;179;912877;-63
2021/03/12 07:44:07;;;;;;;4.60;1.80;;;;;;;;;;784366;179;621994;-64
2021/03/12 07:46:33;;;;;;;7.20;1.30;;;;;;;;;;781156;179;618130;-64
2021/03/12 07:48:59;;;;;;;2.30;1.40;;;;;;;;;;775325;178;919730;-67
2021/03/12 07:51:25;;;;;;;2.30;1.30;;;;;;;;;;780970;178;919549;-63
2021/03/12 07:53:51;;;;;;;4.20;1.97;;;;;;;;;;778055;178;919802;-63
2021/03/12 07:56:17;;;;;;;4.18;2.05;;;;;;;;;;775989;178;914655;-63
2021/03/12 07:58:53;;;;;;;4.20;1.70;;;;;;;;;;782191;178;917327;-63
2021/03/12 08:01:18;;;;;;;2.80;1.90;;;;;;;;;;772771;182;917867;-62
2021/03/12 08:03:44;;;;;;;4.60;2.13;;;;;;;;;;778683;178;916355;-65
2021/03/12 08:06:31;;;;;;;3.40;1.92;;;;;;;;;;777962;178;919880;-63
2021/03/12 08:08:57;;;;;;;3.00;1.50;;;;;;;;;;778536;179;919402;-63
2021/03/12 08:11:27;;;;;;;4.03;1.80;;;;;;;;;;771272;178;1748113;-63
2021/03/12 08:13:51;;;;;;;4.50;2.12;;;;;;;;;;778693;176;931931;-64
2021/03/12 08:16:16;;;;;;;2.80;1.80;;;;;;;;;;776381;179;922061;-63
2021/03/12 08:18:42;;;;;;;3.60;1.70;;;;;;;;;;780624;179;918925;-64
2021/03/12 08:21:14;;;;;;;5.47;1.40;;;;;;;;;;782617;179;631335;-64
2021/03/12 08:23:40;;;;;;;2.30;1.70;;;;;;;;;;778096;179;918795;-64
2021/03/12 08:26:06;;;;;;;3.30;2.17;;;;;;;;;;775535;179;918304;-62
2021/03/12 08:28:32;;;;;;;3.00;1.70;;;;;;;;;;778551;179;919592;-62
2021/03/12 08:30:57;;;;;;;5.10;1.83;;;;;;;;;;767169;182;897769;-62
2021/03/12 08:33:25;;;;;;;3.17;2.08;;;;;;;;;;778300;179;919287;-63
2021/03/12 08:35:51;;;;;;;3.42;2.10;;;;;;;;;;772237;179;1241257;-63
2021/03/12 08:38:37;;;;;;;3.80;2.50;;;;;;;;;;782068;179;918812;-63
2021/03/12 08:41:07;;;;;;;2.93;1.87;;;;;;;;;;772426;182;917524;-63
2021/03/12 08:43:31;;;;;;;2.43;1.47;;;;;;;;;;776921;179;1226391;-64
2021/03/12 08:45:57;;;;;;;3.10;1.58;;;;;;;;;;777838;179;926872;-63
2021/03/12 08:48:24;;;;;;;2.23;1.50;;;;;;;;;;774665;179;918489;-63
2021/03/12 08:50:54;;;;;;;2.83;1.50;;;;;;;;;;775964;179;919458;-63
2021/03/12 08:53:20;;;;;;;2.23;1.40;;;;;;;;;;774686;179;919408;-63
2021/03/12 08:55:46;;;;;;;3.63;1.83;;;;;;;;;;777776;179;919918;-63
2021/03/12 08:58:16;;;;;;;2.50;1.33;;;;;;;;;;778364;179;1241534;-62
2021/03/12 09:00:42;;;;;;;2.10;1.27;;;;;;;;;;777983;178;920624;-63
2021/03/12 09:03:14;;;;;;;3.30;1.52;;;;;;;;;;775633;178;918469;-63
2021/03/12 09:05:40;;;;;;;2.40;1.50;;;;;;;;;;779316;178;919237;-63
2021/03/12 09:08:06;;;;;;;3.20;1.90;;;;;;;;;;781918;178;913022;-63
2021/03/12 09:10:32;;;;;;;1.90;1.10;;;;;;;;;;778346;178;919491;-63
2021/03/12 09:12:58;;;;;;;9.93;1.90;;;;;;;;;;775434;178;1020494;-63
2021/03/12 09:15:23;;;;;;;3.13;1.50;;;;;;;;;;783262;178;919327;-63
2021/03/12 09:17:49;;;;;;;3.70;1.27;;;;;;;;;;769561;178;2294993;-63
2021/03/12 09:20:16;;;;;;;3.12;1.40;;;;;;;;;;779969;179;920307;-64
2021/03/12 09:22:41;;;;;;;4.43;1.70;;;;;;;;;;774506;179;986909;-62
2021/03/12 09:25:08;;;;;;;3.40;1.40;;;;;;;;;;769569;182;943212;-61
2021/03/12 09:27:39;;;;;;;5.07;1.57;;;;;;;;;;779223;179;917339;-63
2021/03/12 09:30:05;;;;;;;2.20;1.20;;;;;;;;;;777732;179;919327;-63
2021/03/12 09:32:36;;;;;;;2.33;1.37;;;;;;;;;;782161;179;918541;-62
2021/03/12 09:35:02;;;;;;;2.83;1.90;;;;;;;;;;775807;179;921369;-62
2021/03/12 09:37:29;;;;;;;2.43;1.30;;;;;;;;;;774352;179;919744;-62
2021/03/12 09:39:54;;;;;;;2.30;1.23;;;;;;;;;;771976;179;918826;-62
2021/03/12 09:42:20;;;;;;;3.10;1.40;;;;;;;;;;780190;179;920607;-62
2021/03/12 09:44:47;;;;;;;4.00;1.30;;;;;;;;;;775294;179;923469;-61
2021/03/12 09:47:12;;;;;;;3.25;1.40;;;;;;;;;;771129;179;2247455;-63
2021/03/12 09:49:38;;;;;;;2.87;1.20;;;;;;;;;;781132;179;913209;-62
2021/03/12 09:52:13;;;;;;;4.27;2.20;;;;;;;;;;776128;179;920475;-63
2021/03/12 09:54:39;;;;;;;4.70;1.87;;;;;;;;;;774198;179;910751;-62
2021/03/12 09:57:05;;;;;;;4.70;2.10;;;;;;;;;;778238;179;908375;-63
2021/03/12 09:59:31;;;;;;;2.80;1.87;;;;;;;;;;779203;179;1005289;-61
2021/03/12 10:02:00;;;;;;;4.70;1.63;;;;;;;;;;775245;179;919869;-65
2021/03/12 10:04:26;;;;;;;3.73;1.93;;;;;;;;;;775937;179;918526;-63
2021/03/12 10:06:56;;;;;;;4.57;1.97;;;;;;;;;;782770;179;919447;-62
2021/03/12 10:09:24;;;;;;;2.63;1.40;;;;;;;;;;774941;179;918227;-65
2021/03/12 10:11:49;;;;;;;4.03;2.00;;;;;;;;;;778862;176;919207;-62
2021/03/12 10:14:21;;;;;;;4.47;1.80;;;;;;;;;;785605;178;627920;-62
2021/03/12 10:16:47;;;;;;;3.27;2.20;;;;;;;;;;782071;178;893562;-62
2021/03/12 10:19:13;;;;;;;3.47;1.60;;;;;;;;;;777428;178;922425;-62
2021/03/12 10:21:39;;;;;;;3.87;1.70;;;;;;;;;;776639;178;915729;-62
2021/03/12 10:24:04;;;;;;;3.30;2.00;;;;;;;;;;774101;178;1093438;-63
2021/03/12 10:26:30;;;;;;;5.20;1.63;;;;;;;;;;779206;178;909101;-63
2021/03/12 10:28:56;;;;;;;2.13;1.20;;;;;;;;;;777889;178;1174210;-62
2021/03/12 10:31:22;;;;;;;1.83;1.07;;;;;;;;;;775153;178;946244;-62
2021/03/12 10:33:48;;;;;;;3.33;1.30;;;;;;;;;;785125;179;917768;-63
2021/03/12 10:36:14;;;;;;;2.93;1.50;;;;;;;;;;777413;179;919019;-63
2021/03/12 10:38:40;;;;;;;7.27;1.77;;;;;;;;;;777078;179;924130;-63
2021/03/12 10:41:06;;;;;;;3.37;2.10;;;;;;;;;;779386;179;915013;-64
2021/03/12 10:43:32;;;;;;;4.00;1.60;;;;;;;;;;776929;179;919130;-63
2021/03/12 10:46:00;;;;;;;2.25;1.25;;;;;;;;;;774859;179;1034199;-62
2021/03/12 10:48:27;;;;;;;2.77;1.50;;;;;;;;;;777978;179;921577;-62
2021/03/12 10:50:56;;;;;;;2.90;1.47;;;;;;;;;;777861;176;917359;-64
2021/03/12 10:53:22;;;;;;;4.10;1.50;;;;;;;;;;779249;179;920101;-62
2021/03/12 10:55:48;;;;;;;4.80;1.53;;;;;;;;;;777164;179;919452;-62
2021/03/12 10:58:20;;;;;;;2.78;1.20;;;;;;;;;;779676;179;919343;-62
2021/03/12 11:00:45;;;;;;;2.70;1.60;;;;;;;;;;775011;179;1840119;-62
2021/03/12 11:03:11;;;;;;;2.90;1.30;;;;;;;;;;775389;179;936584;-63
2021/03/12 11:05:37;;;;;;;3.10;1.23;;;;;;;;;;776342;179;920477;-62
2021/03/12 11:08:03;;;;;;;3.10;1.70;;;;;;;;;;780747;179;919548;-62
2021/03/12 11:10:29;;;;;;;3.67;1.63;;;;;;;;;;775252;179;920178;-63
2021/03/12 11:12:55;;;;;;;2.45;1.50;;;;;;;;;;774171;179;927311;-62
2021/03/12 11:15:21;;;;;;;1.93;1.27;;;;;;;;;;782480;179;918940;-64
2021/03/12 11:17:47;;;;;;;3.73;1.53;;;;;;;;;;775096;179;920030;-65
2021/03/12 11:20:12;;;;;;;2.87;1.17;;;;;;;;;;775967;179;919722;-62
2021/03/12 11:22:38;;;;;;;4.43;1.50;;;;;;;;;;781915;179;630536;-62
2021/03/12 11:25:04;;;;;;;5.10;1.73;;;;;;;;;;781462;178;922483;-61
2021/03/12 11:27:32;;;;;;;2.72;1.50;;;;;;;;;;776169;178;1157740;-62
2021/03/12 11:29:56;;;;;;;2.27;1.53;;;;;;;;;;784681;178;919470;-62
2021/03/12 11:32:25;;;;;;;2.90;1.60;;;;;;;;;;778158;178;919963;-62
2021/03/12 11:34:53;;;;;;;2.83;1.47;;;;;;;;;;776275;178;919807;-62
2021/03/12 11:37:18;;;;;;;2.33;1.57;;;;;;;;;;775775;178;930570;-62
2021/03/12 11:39:45;;;;;;;2.70;1.35;;;;;;;;;;781206;178;918759;-63
2021/03/12 11:42:11;;;;;;;5.13;1.43;;;;;;;;;;779076;178;919490;-62
2021/03/12 11:44:36;;;;;;;3.70;1.30;;;;;;;;;;779189;179;919454;-64
2021/03/12 11:47:03;;;;;;;4.00;1.40;;;;;;;;;;786686;179;622083;-63
2021/03/12 11:49:29;;;;;;;3.13;1.90;;;;;;;;;;769603;179;2457875;-63
2021/03/12 11:51:56;;;;;;;2.97;1.43;;;;;;;;;;783261;179;620593;-63
2021/03/12 11:54:21;;;;;;;3.60;1.30;;;;;;;;;;778492;179;754429;-62
2021/03/12 11:56:47;;;;;;;6.10;1.77;;;;;;;;;;783811;179;636049;-63
2021/03/12 11:59:13;;;;;;;4.77;1.40;;;;;;;;;;778775;179;629097;-63
2021/03/12 12:01:39;;;;;;;5.80;2.07;;;;;;;;;;779753;179;731170;-62
2021/03/12 12:04:05;;;;;;;2.80;1.53;;;;;;;;;;783910;179;639500;-63
2021/03/12 12:06:31;;;;;;;2.50;1.43;;;;;;;;;;783246;179;617399;-63
2021/03/12 12:08:57;;;;;;;3.40;1.53;;;;;;;;;;779686;179;651397;-63
2021/03/12 12:11:24;;;;;;;3.27;1.43;;;;;;;;;;785982;179;633950;-63
2021/03/12 12:13:49;;;;;;;3.10;1.90;;;;;;;;;;783368;179;628114;-62
2021/03/12 12:16:15;;;;;;;2.37;1.63;;;;;;;;;;778225;179;1034440;-63
2021/03/12 12:18:41;;;;;;;4.10;1.70;;;;;;;;;;781622;179;624123;-63
2021/03/12 12:21:07;;;;;;;6.30;2.10;;;;;;;;;;775923;180;631267;-62
2021/03/12 12:23:32;;;;;;;2.53;1.33;;;;;;;;;;780679;179;635962;-63
2021/03/12 12:25:59;;;;;;;2.17;1.60;;;;;;;;;;778348;179;622128;-62
2021/03/12 12:28:24;;;;;;;6.60;1.70;;;;;;;;;;786026;179;633881;-63
2021/03/12 12:30:51;;;;;;;2.50;1.40;;;;;;;;;;778853;179;623942;-62
2021/03/12 12:33:18;;;;;;;4.33;2.00;;;;;;;;;;781962;179;629581;-63
2021/03/12 12:35:45;;;;;;;3.27;1.27;;;;;;;;;;781782;178;720116;-62
2021/03/12 12:38:12;;;;;;;3.03;1.90;;;;;;;;;;781456;178;626153;-63
2021/03/12 12:40:39;;;;;;;3.43;1.77;;;;;;;;;;779566;178;625423;-63
2021/03/12 12:43:05;;;;;;;2.77;1.70;;;;;;;;;;781281;178;638556;-63
2021/03/12 12:45:31;;;;;;;4.80;1.70;;;;;;;;;;784930;178;614283;-63
2021/03/12 12:47:57;;;;;;;2.37;1.30;;;;;;;;;;784398;178;633425;-63
2021/03/12 12:50:23;;;;;;;2.63;1.53;;;;;;;;;;783590;178;629727;-63
2021/03/12 12:52:49;;;;;;;2.62;1.48;;;;;;;;;;776275;178;2064766;-62
2021/03/12 12:55:15;;;;;;;3.83;1.90;;;;;;;;;;783734;179;630552;-62
2021/03/12 12:57:41;;;;;;;3.80;1.30;;;;;;;;;;778945;179;892237;-62
2021/03/12 13:00:07;;;;;;;3.23;1.67;;;;;;;;;;785703;179;643594;-62
2021/03/12 13:02:33;;;;;;;3.53;1.50;;;;;;;;;;779387;179;622569;-63
2021/03/12 13:04:59;;;;;;;4.30;1.77;;;;;;;;;;781917;179;633310;-62
2021/03/12 13:07:24;;;;;;;4.17;1.70;;;;;;;;;;779110;179;631341;-63
2021/03/12 13:09:50;;;;;;;4.00;2.40;;;;;;;;;;783260;175;647648;-63
2021/03/12 13:12:16;;;;;;;2.90;1.70;;;;;;;;;;778398;179;629427;-63
2021/03/12 13:14:42;;;;;;;3.40;1.92;;;;;;;;;;781295;179;673003;-64
2021/03/12 13:17:08;;;;;;;5.03;2.10;;;;;;;;;;773383;179;2577172;-63
2021/03/12 13:19:34;;;;;;;3.10;1.97;;;;;;;;;;782939;179;623665;-63
2021/03/12 13:21:59;;;;;;;5.03;2.00;;;;;;;;;;778747;179;637228;-63
2021/03/12 13:24:25;;;;;;;5.47;1.83;;;;;;;;;;786675;179;633193;-63
2021/03/12 13:26:53;;;;;;;2.10;1.67;;;;;;;;;;782159;179;626237;-64
2021/03/12 13:29:19;;;;;;;3.53;2.20;;;;;;;;;;780653;179;946870;-62
2021/03/12 13:31:45;;;;;;;3.63;2.03;;;;;;;;;;786055;179;618106;-63
2021/03/12 13:34:10;;;;;;;3.63;1.50;;;;;;;;;;778525;179;630410;-63
2021/03/12 13:36:36;;;;;;;3.80;1.87;;;;;;;;;;780914;179;630401;-63
2021/03/12 13:39:02;;;;;;;2.53;2.10;;;;;;;;;;778219;179;636082;-64
2021/03/12 13:41:29;;;;;;;6.30;1.73;;;;;;;;;;786333;179;618328;-62
2021/03/12 13:43:54;;;;;;;3.17;1.60;;;;;;;;;;779275;179;718940;-63
2021/03/12 13:46:20;;;;;;;4.63;1.47;;;;;;;;;;781326;179;649264;-64
2021/03/12 13:48:46;;;;;;;4.50;2.10;;;;;;;;;;785861;176;635891;-64
2021/03/12 13:51:12;;;;;;;2.70;1.70;;;;;;;;;;785547;178;623706;-64
2021/03/12 13:53:37;;;;;;;4.47;1.87;;;;;;;;;;781026;178;629005;-64
2021/03/12 13:56:03;;;;;;;3.50;1.60;;;;;;;;;;787210;178;614844;-65
2021/03/12 13:58:29;;;;;;;3.17;1.30;;;;;;;;;;779129;178;628772;-64
2021/03/12 14:00:55;;;;;;;3.60;1.90;;;;;;;;;;783167;178;644973;-64
2021/03/12 14:03:22;;;;;;;7.70;3.57;;;;;;;;;;784466;178;627295;-65
2021/03/12 14:05:48;;;;;;;4.33;1.90;;;;;;;;;;777468;182;767259;-64
2021/03/12 14:08:14;;;;;;;3.33;1.90;;;;;;;;;;782854;179;665583;-63
2021/03/12 14:10:40;;;;;;;3.70;2.03;;;;;;;;;;778852;179;626569;-64
2021/03/12 14:13:06;;;;;;;4.60;2.43;;;;;;;;;;785439;179;641468;-64